Time;durP1;ratioP1;P1;durP2;ratioP2;P2;SDS_P1;SDS_P2;PMS_P1;PMS_P2;Temp;Humidity;BMP_temperature;BMP_pressure;BME280_temperature;BME280_humidity;BME280_pressure;Samples;Min_cycle;Max_cycle;Signal;HPM_P1;HPM_P2
2022/03/01 00:00:38;;;;;;;4.97;4.32;;;6.70;99.90;;;;;;5019419;28;20321;-53
2022/03/01 00:03:06;;;;;;;5.53;4.65;;;6.70;99.90;;;;;;5012717;28;20221;-54
2022/03/01 00:05:34;;;;;;;5.85;4.85;;;6.70;99.90;;;;;;5021982;28;20213;-53
2022/03/01 00:08:02;;;;;;;6.45;5.43;;;6.70;99.90;;;;;;5026283;28;20776;-53
2022/03/01 00:10:30;;;;;;;6.70;5.15;;;6.70;99.90;;;;;;5032227;28;20185;-54
2022/03/01 00:12:58;;;;;;;6.07;5.18;;;6.70;99.90;;;;;;5027034;28;20228;-53
2022/03/01 00:15:27;;;;;;;5.30;4.65;;;6.70;99.90;;;;;;5045755;28;20193;-53
2022/03/01 00:17:55;;;;;;;4.88;4.10;;;6.70;99.90;;;;;;5030887;28;20620;-54
2022/03/01 00:20:24;;;;;;;6.55;5.18;;;6.70;99.90;;;;;;5023975;28;20267;-52
2022/03/01 00:22:52;;;;;;;6.65;6.03;;;6.70;99.90;;;;;;5025118;28;20218;-53
2022/03/01 00:25:20;;;;;;;7.05;6.30;;;6.70;99.90;;;;;;5031059;28;20189;-52
2022/03/01 00:27:47;;;;;;;6.40;4.97;;;6.70;99.90;;;;;;5031609;28;20245;-52
2022/03/01 00:30:16;;;;;;;6.45;4.82;;;6.70;99.90;;;;;;5022923;28;20649;-53
2022/03/01 00:32:48;;;;;;;5.60;5.05;;;6.70;99.90;;;;;;5031475;28;20323;-52
2022/03/01 00:35:17;;;;;;;5.90;5.30;;;6.70;99.90;;;;;;5023703;28;20198;-53
2022/03/01 00:37:45;;;;;;;5.60;4.80;;;6.70;99.90;;;;;;5013116;28;20232;-52
2022/03/01 00:40:13;;;;;;;6.60;5.95;;;6.70;99.90;;;;;;5031309;28;20304;-53
2022/03/01 00:42:41;;;;;;;5.88;4.85;;;6.70;99.90;;;;;;5030949;28;20220;-54
2022/03/01 00:45:10;;;;;;;7.43;5.40;;;6.70;99.90;;;;;;5016918;28;20273;-53
2022/03/01 00:47:38;;;;;;;6.50;5.03;;;6.70;99.90;;;;;;5011516;28;20301;-54
2022/03/01 00:50:09;;;;;;;5.75;5.25;;;6.70;99.90;;;;;;5025744;28;20182;-52
2022/03/01 00:52:37;;;;;;;6.93;5.00;;;6.70;99.90;;;;;;5035902;28;20213;-54
2022/03/01 00:55:08;;;;;;;6.57;5.32;;;6.70;99.90;;;;;;5030146;28;20624;-53
2022/03/01 00:57:36;;;;;;;7.93;5.40;;;6.70;99.90;;;;;;5030368;28;20271;-52
2022/03/01 01:00:09;;;;;;;5.68;5.13;;;6.70;99.90;;;;;;5020529;28;20209;-52
2022/03/01 01:02:37;;;;;;;5.10;4.40;;;6.70;99.90;;;;;;5019383;28;20218;-52
2022/03/01 01:05:08;;;;;;;5.70;5.20;;;6.70;99.90;;;;;;5024889;28;20216;-54
2022/03/01 01:07:36;;;;;;;5.90;4.35;;;6.70;99.90;;;;;;5029544;28;20653;-52
2022/03/01 01:10:05;;;;;;;7.07;5.75;;;6.70;99.90;;;;;;5031449;28;20292;-52
2022/03/01 01:12:34;;;;;;;4.90;4.32;;;6.70;99.90;;;;;;5030146;28;20708;-53
2022/03/01 01:15:03;;;;;;;5.80;5.20;;;6.70;99.90;;;;;;5015450;28;20669;-54
2022/03/01 01:17:31;;;;;;;9.57;5.40;;;6.70;99.90;;;;;;5027529;28;20308;-53
2022/03/01 01:19:59;;;;;;;6.65;5.78;;;6.70;99.90;;;;;;5028766;28;20300;-52
2022/03/01 01:22:41;;;;;;;7.72;6.22;;;6.70;99.90;;;;;;5030471;28;20315;-54
2022/03/01 01:25:11;;;;;;;7.03;5.97;;;6.60;99.90;;;;;;5030379;28;20185;-54
2022/03/01 01:27:41;;;;;;;6.90;6.20;;;6.60;99.90;;;;;;5030489;28;20307;-52
2022/03/01 01:30:11;;;;;;;7.78;6.43;;;6.60;99.90;;;;;;5022989;28;20389;-53
2022/03/01 01:32:39;;;;;;;7.25;5.93;;;6.60;99.90;;;;;;5010744;28;20585;-53
2022/03/01 01:35:09;;;;;;;5.85;5.15;;;6.60;99.90;;;;;;5012382;28;20660;-51
2022/03/01 01:37:40;;;;;;;6.00;5.40;;;6.60;99.90;;;;;;5017906;28;20814;-53
2022/03/01 01:40:11;;;;;;;5.78;5.18;;;6.60;99.90;;;;;;5030541;28;20237;-53
2022/03/01 01:42:39;;;;;;;9.55;6.03;;;6.60;99.90;;;;;;5030165;28;20244;-53
2022/03/01 01:45:08;;;;;;;7.50;5.25;;;6.60;99.90;;;;;;5015225;28;20252;-53
2022/03/01 01:47:46;;;;;;;8.38;7.10;;;6.60;99.90;;;;;;5010500;28;20228;-53
2022/03/01 01:50:15;;;;;;;12.43;7.72;;;6.60;99.90;;;;;;5022442;28;20241;-53
2022/03/01 01:52:47;;;;;;;8.73;6.63;;;6.60;99.90;;;;;;5015336;28;20267;-54
2022/03/01 01:55:16;;;;;;;7.55;6.85;;;6.50;99.90;;;;;;5029247;28;20239;-54
2022/03/01 01:57:44;;;;;;;9.50;8.25;;;6.50;99.90;;;;;;5028114;28;20208;-53
2022/03/01 02:00:14;;;;;;;7.72;6.38;;;6.40;99.90;;;;;;5011378;28;20214;-54
2022/03/01 02:02:42;;;;;;;7.32;6.40;;;6.50;99.90;;;;;;5018798;28;20704;-53
2022/03/01 02:05:11;;;;;;;5.47;4.80;;;6.50;99.90;;;;;;5023642;28;20198;-51
2022/03/01 02:07:50;;;;;;;7.55;5.72;;;6.50;99.90;;;;;;5017617;28;20631;-54
2022/03/01 02:10:18;;;;;;;5.50;5.00;;;6.50;99.90;;;;;;5030732;28;20279;-54
2022/03/01 02:12:47;;;;;;;6.82;5.57;;;6.50;99.90;;;;;;5029334;28;20224;-52
2022/03/01 02:15:17;;;;;;;7.72;5.47;;;6.50;99.90;;;;;;5028938;28;20201;-54
2022/03/01 02:17:45;;;;;;;8.23;6.70;;;6.50;99.90;;;;;;5029570;28;20221;-54
2022/03/01 02:20:17;;;;;;;7.18;5.63;;;6.50;99.90;;;;;;5024128;28;20221;-54
2022/03/01 02:22:45;;;;;;;8.35;6.20;;;6.50;99.90;;;;;;5028096;28;20245;-52
2022/03/01 02:25:14;;;;;;;8.07;5.60;;;6.50;99.90;;;;;;5030211;28;20200;-53
2022/03/01 02:27:42;;;;;;;8.75;6.80;;;6.50;99.90;;;;;;5028317;28;20398;-53
2022/03/01 02:30:11;;;;;;;8.65;6.82;;;6.50;99.90;;;;;;5030096;28;20186;-53
2022/03/01 02:32:40;;;;;;;7.88;6.72;;;6.50;99.90;;;;;;5029709;28;20225;-52
2022/03/01 02:35:09;;;;;;;8.02;5.90;;;6.50;99.90;;;;;;5027304;28;20276;-53
2022/03/01 02:37:39;;;;;;;7.18;5.45;;;6.50;99.90;;;;;;5029710;28;20324;-54
2022/03/01 02:40:08;;;;;;;6.25;5.50;;;6.50;99.90;;;;;;5030344;28;20185;-52
2022/03/01 02:42:36;;;;;;;6.00;5.40;;;6.50;99.90;;;;;;5027117;28;20225;-53
2022/03/01 02:45:05;;;;;;;8.88;7.05;;;6.50;99.90;;;;;;5010071;28;20193;-53
2022/03/01 02:47:37;;;;;;;5.32;4.82;;;6.50;99.90;;;;;;5010921;28;20728;-53
2022/03/01 02:50:06;;;;;;;8.05;6.20;;;6.50;99.90;;;;;;5025285;28;20510;-52
2022/03/01 02:52:39;;;;;;;7.55;5.95;;;6.50;99.90;;;;;;5010600;28;20589;-52
2022/03/01 02:55:09;;;;;;;6.97;5.35;;;6.50;99.90;;;;;;5029626;28;20193;-52
2022/03/01 02:57:40;;;;;;;8.35;6.10;;;6.50;99.90;;;;;;5025265;28;20224;-50
2022/03/01 03:00:10;;;;;;;8.90;7.38;;;6.50;99.90;;;;;;5010671;28;20256;-52
2022/03/01 03:02:42;;;;;;;8.32;6.22;;;6.50;99.90;;;;;;5018009;28;20227;-53
2022/03/01 03:05:11;;;;;;;6.93;6.00;;;6.50;99.90;;;;;;5027124;28;20198;-54
2022/03/01 03:07:43;;;;;;;6.03;5.50;;;6.50;99.90;;;;;;5022262;28;20240;-53
2022/03/01 03:10:12;;;;;;;5.93;5.32;;;6.40;99.90;;;;;;5033949;28;20660;-54
2022/03/01 03:12:44;;;;;;;6.85;5.57;;;6.50;99.90;;;;;;5032123;28;20219;-52
2022/03/01 03:15:12;;;;;;;5.75;5.20;;;6.50;99.90;;;;;;5030987;28;20292;-53
2022/03/01 03:17:41;;;;;;;5.97;5.10;;;6.50;99.90;;;;;;5032585;28;20219;-53
2022/03/01 03:20:10;;;;;;;7.40;6.20;;;6.50;99.90;;;;;;5027732;28;20194;-52
2022/03/01 03:22:39;;;;;;;5.50;4.68;;;6.50;99.90;;;;;;5030506;28;20228;-53
2022/03/01 03:25:10;;;;;;;5.55;5.00;;;6.50;99.90;;;;;;5031987;28;20223;-50
2022/03/01 03:27:38;;;;;;;7.68;6.10;;;6.50;99.90;;;;;;5032328;28;20278;-52
2022/03/01 03:30:08;;;;;;;8.43;5.90;;;6.40;99.90;;;;;;5015946;28;20301;-54
2022/03/01 03:32:37;;;;;;;6.05;5.45;;;6.40;99.90;;;;;;5029249;28;20240;-52
2022/03/01 03:35:06;;;;;;;5.80;4.75;;;6.40;99.90;;;;;;5042749;28;20603;-53
2022/03/01 03:37:35;;;;;;;6.72;5.22;;;6.40;99.90;;;;;;5032150;28;20248;-53
2022/03/01 03:40:03;;;;;;;5.30;4.50;;;6.50;99.90;;;;;;5032489;28;20221;-52
2022/03/01 03:42:33;;;;;;;6.65;5.78;;;6.50;99.90;;;;;;5032788;28;20256;-52
2022/03/01 03:45:07;;;;;;;5.07;4.57;;;6.50;99.90;;;;;;5031055;28;20630;-54
2022/03/01 03:47:35;;;;;;;6.57;5.72;;;6.40;99.90;;;;;;5032209;28;20661;-53
2022/03/01 03:50:04;;;;;;;6.35;5.60;;;6.40;99.90;;;;;;5027433;28;20201;-53
2022/03/01 03:52:32;;;;;;;5.28;4.70;;;6.40;99.90;;;;;;5012499;28;20570;-53
2022/03/01 03:55:00;;;;;;;5.45;4.90;;;6.40;99.90;;;;;;5028262;28;20680;-52
2022/03/01 03:57:28;;;;;;;5.95;4.85;;;6.40;99.90;;;;;;5028218;28;20299;-52
2022/03/01 03:59:58;;;;;;;5.70;5.10;;;6.40;99.90;;;;;;5027186;28;20278;-53
2022/03/01 04:02:26;;;;;;;6.82;5.13;;;6.40;99.90;;;;;;5031666;28;20220;-52
2022/03/01 04:04:54;;;;;;;6.00;4.53;;;6.40;99.90;;;;;;5027031;28;20652;-55
2022/03/01 04:07:22;;;;;;;5.88;5.28;;;6.40;99.90;;;;;;5015907;28;20297;-53
2022/03/01 04:09:51;;;;;;;6.05;5.50;;;6.40;99.90;;;;;;5032314;28;20512;-55
2022/03/01 04:12:19;;;;;;;5.68;5.03;;;6.40;99.90;;;;;;5030032;28;20287;-53
2022/03/01 04:14:47;;;;;;;5.45;4.40;;;6.40;99.90;;;;;;5013696;28;20231;-51
2022/03/01 04:17:17;;;;;;;6.10;5.20;;;6.40;99.90;;;;;;5025249;28;20307;-52
2022/03/01 04:19:45;;;;;;;6.57;5.25;;;6.40;99.90;;;;;;5029702;28;20221;-52
2022/03/01 04:22:13;;;;;;;6.00;4.97;;;6.40;99.90;;;;;;5023576;28;20241;-54
2022/03/01 04:24:41;;;;;;;5.93;5.10;;;6.40;99.90;;;;;;5031478;28;20193;-53
2022/03/01 04:27:09;;;;;;;6.32;5.28;;;6.40;99.90;;;;;;5031451;28;20221;-51
2022/03/01 04:29:37;;;;;;;7.13;6.20;;;6.40;99.90;;;;;;5019345;28;20198;-53
2022/03/01 04:32:06;;;;;;;7.82;5.50;;;6.40;99.90;;;;;;5031575;28;20221;-52
2022/03/01 04:34:35;;;;;;;6.18;5.57;;;6.40;99.90;;;;;;5030057;28;20193;-52
2022/03/01 04:37:04;;;;;;;6.72;5.15;;;6.40;99.90;;;;;;5026951;28;20256;-53
2022/03/01 04:39:32;;;;;;;6.40;4.88;;;6.30;99.90;;;;;;5013261;28;20610;-52
2022/03/01 04:42:00;;;;;;;7.82;5.93;;;6.30;99.90;;;;;;5031504;28;20221;-54
2022/03/01 04:44:28;;;;;;;5.82;5.20;;;6.30;99.90;;;;;;5025678;28;20232;-54
2022/03/01 04:46:56;;;;;;;4.97;4.45;;;6.30;99.90;;;;;;5032093;28;20639;-53
2022/03/01 04:49:24;;;;;;;5.63;4.97;;;6.30;99.90;;;;;;5031753;28;20247;-52
2022/03/01 04:51:53;;;;;;;6.25;4.30;;;6.30;99.90;;;;;;5011436;28;20241;-53
2022/03/01 04:54:21;;;;;;;5.32;4.55;;;6.30;99.90;;;;;;5019077;28;20243;-53
2022/03/01 04:56:49;;;;;;;6.00;4.70;;;6.30;99.90;;;;;;5031591;28;20278;-52
2022/03/01 04:59:18;;;;;;;5.88;5.20;;;6.30;99.90;;;;;;5015628;28;20287;-53
2022/03/01 05:01:46;;;;;;;4.70;4.20;;;6.30;99.90;;;;;;5023523;28;20669;-53
2022/03/01 05:04:14;;;;;;;5.80;5.25;;;6.30;99.90;;;;;;5030796;28;20193;-53
2022/03/01 05:06:43;;;;;;;4.53;3.97;;;6.30;99.90;;;;;;5023032;28;20278;-53
2022/03/01 05:09:12;;;;;;;6.13;5.00;;;6.30;99.90;;;;;;5031672;28;20291;-53
2022/03/01 05:11:41;;;;;;;5.65;5.05;;;6.30;99.90;;;;;;5030331;28;20268;-53
2022/03/01 05:14:09;;;;;;;5.03;4.53;;;6.30;99.90;;;;;;5024303;28;20197;-53
2022/03/01 05:16:37;;;;;;;5.47;4.90;;;6.30;99.90;;;;;;5020016;28;20245;-53
2022/03/01 05:19:06;;;;;;;6.03;5.13;;;6.30;99.90;;;;;;5030792;28;20239;-53
2022/03/01 05:21:35;;;;;;;7.43;5.95;;;6.30;99.90;;;;;;5021354;28;20229;-53
2022/03/01 05:24:04;;;;;;;7.40;5.93;;;6.30;99.90;;;;;;5030045;28;20239;-54
2022/03/01 05:26:34;;;;;;;6.15;5.50;;;6.30;99.90;;;;;;5029680;28;20240;-54
2022/03/01 05:29:02;;;;;;;7.35;5.50;;;6.20;99.90;;;;;;5018737;28;20202;-53
2022/03/01 05:31:30;;;;;;;6.28;4.70;;;6.20;99.90;;;;;;5028354;28;20699;-53
2022/03/01 05:33:58;;;;;;;10.60;6.28;;;6.20;99.90;;;;;;5029445;28;20201;-52
2022/03/01 05:36:26;;;;;;;7.50;5.50;;;6.20;99.90;;;;;;5026222;28;20221;-54
2022/03/01 05:38:54;;;;;;;6.05;5.05;;;6.20;99.90;;;;;;5030295;28;20201;-54
2022/03/01 05:41:24;;;;;;;5.90;5.30;;;6.20;99.90;;;;;;5030174;28;20244;-52
2022/03/01 05:43:53;;;;;;;5.75;5.05;;;6.20;99.90;;;;;;5027129;28;20263;-52
2022/03/01 05:46:27;;;;;;;5.40;4.90;;;6.20;99.90;;;;;;5030098;28;20319;-52
2022/03/01 05:48:55;;;;;;;7.20;6.35;;;6.20;99.90;;;;;;5030385;28;20235;-53
2022/03/01 05:51:23;;;;;;;9.20;5.75;;;6.10;99.90;;;;;;5028958;28;20224;-50
2022/03/01 05:53:53;;;;;;;5.85;4.80;;;6.10;99.90;;;;;;5030167;28;20181;-53
2022/03/01 05:56:21;;;;;;;5.35;4.90;;;6.10;99.90;;;;;;5030049;28;20229;-54
2022/03/01 05:58:49;;;;;;;5.15;4.68;;;6.10;99.90;;;;;;5029356;28;20284;-52
2022/03/01 06:01:18;;;;;;;6.13;4.72;;;6.10;99.90;;;;;;5009726;28;20654;-53
2022/03/01 06:03:46;;;;;;;6.93;5.95;;;6.20;99.90;;;;;;5025474;28;20220;-53
2022/03/01 06:06:14;;;;;;;4.35;3.95;;;6.20;99.90;;;;;;5019925;28;20639;-53
2022/03/01 06:08:42;;;;;;;4.80;4.30;;;6.20;99.90;;;;;;5029880;28;20202;-53
2022/03/01 06:11:10;;;;;;;5.65;4.70;;;6.20;99.90;;;;;;5029704;28;20209;-55
2022/03/01 06:13:39;;;;;;;5.80;5.13;;;6.20;99.90;;;;;;5026386;28;20211;-52
2022/03/01 06:16:07;;;;;;;4.60;4.20;;;6.20;99.90;;;;;;5029761;28;20279;-53
2022/03/01 06:18:36;;;;;;;6.07;4.60;;;6.20;99.90;;;;;;5030011;28;20193;-51
2022/03/01 06:21:05;;;;;;;6.15;4.82;;;6.20;99.90;;;;;;5016473;28;20214;-52
2022/03/01 06:23:33;;;;;;;9.13;5.28;;;6.20;99.90;;;;;;5010385;28;20205;-52
2022/03/01 06:26:01;;;;;;;5.35;4.85;;;6.20;99.90;;;;;;5028218;28;20194;-53
2022/03/01 06:28:30;;;;;;;7.95;5.88;;;6.20;99.90;;;;;;5029826;28;20772;-53
2022/03/01 06:30:58;;;;;;;7.70;5.65;;;6.20;99.90;;;;;;5017051;28;20773;-53
2022/03/01 06:33:26;;;;;;;6.65;5.03;;;6.10;99.90;;;;;;5029837;28;20208;-54
2022/03/01 06:35:56;;;;;;;7.30;5.75;;;6.10;99.90;;;;;;5019034;28;20234;-52
2022/03/01 06:38:24;;;;;;;6.95;5.13;;;6.10;99.90;;;;;;5032434;28;20668;-52
2022/03/01 06:40:56;;;;;;;8.80;4.93;;;6.10;99.90;;;;;;5032281;28;20692;-52
2022/03/01 06:43:24;;;;;;;5.65;4.85;;;6.10;99.90;;;;;;5033404;28;20278;-52
2022/03/01 06:45:53;;;;;;;6.70;5.95;;;6.10;99.90;;;;;;5015726;28;20198;-54
2022/03/01 06:48:22;;;;;;;6.60;5.55;;;6.10;99.90;;;;;;5031526;28;20300;-53
2022/03/01 06:50:50;;;;;;;5.38;4.88;;;6.10;99.90;;;;;;5022068;28;20214;-54
2022/03/01 06:53:19;;;;;;;9.60;5.43;;;6.10;99.90;;;;;;5013365;28;20226;-53
2022/03/01 06:55:47;;;;;;;6.82;6.10;;;6.10;99.90;;;;;;5013633;28;20543;-52
2022/03/01 06:58:16;;;;;;;6.78;6.10;;;6.10;99.90;;;;;;5013304;28;20229;-52
2022/03/01 07:00:45;;;;;;;5.78;5.15;;;6.10;99.90;;;;;;5024963;28;20221;-52
2022/03/01 07:03:13;;;;;;;5.43;4.85;;;6.10;99.90;;;;;;5032574;28;20592;-54
2022/03/01 07:05:41;;;;;;;8.05;5.60;;;6.10;99.90;;;;;;5030439;28;20185;-54
2022/03/01 07:08:09;;;;;;;5.63;4.80;;;6.10;99.90;;;;;;5032014;28;20320;-51
2022/03/01 07:10:40;;;;;;;7.80;5.85;;;6.10;99.90;;;;;;5033325;28;20251;-53
2022/03/01 07:13:09;;;;;;;7.10;5.90;;;6.10;99.90;;;;;;5032895;28;20235;-53
2022/03/01 07:15:38;;;;;;;6.95;6.00;;;6.10;99.90;;;;;;5018571;28;20205;-53
2022/03/01 07:18:06;;;;;;;5.50;4.53;;;6.10;99.90;;;;;;5032225;28;20299;-53
2022/03/01 07:20:35;;;;;;;7.43;6.10;;;6.00;99.90;;;;;;5023795;28;20304;-53
2022/03/01 07:23:03;;;;;;;7.47;6.10;;;6.10;99.90;;;;;;5023286;28;20304;-52
2022/03/01 07:25:31;;;;;;;7.10;5.53;;;6.00;99.90;;;;;;5032872;28;20601;-54
2022/03/01 07:28:01;;;;;;;6.85;5.97;;;6.00;99.90;;;;;;5028588;28;20245;-53
2022/03/01 07:30:29;;;;;;;8.73;6.70;;;6.00;99.90;;;;;;5029168;28;20216;-53
2022/03/01 07:32:59;;;;;;;9.60;6.97;;;6.00;99.90;;;;;;5031502;28;20212;-53
2022/03/01 07:35:28;;;;;;;6.53;5.70;;;6.00;99.90;;;;;;5024325;28;20186;-53
2022/03/01 07:37:56;;;;;;;7.47;6.07;;;6.00;99.90;;;;;;5025443;28;20213;-52
2022/03/01 07:40:26;;;;;;;8.27;6.47;;;6.00;99.90;;;;;;5032308;28;20291;-53
2022/03/01 07:42:55;;;;;;;6.10;5.45;;;6.00;99.90;;;;;;5030080;28;20245;-52
2022/03/01 07:45:25;;;;;;;6.22;5.63;;;6.00;99.90;;;;;;5015691;28;20575;-53
2022/03/01 07:47:53;;;;;;;6.75;5.10;;;6.00;99.90;;;;;;5031794;28;20208;-54
2022/03/01 07:50:22;;;;;;;7.07;5.82;;;5.90;99.90;;;;;;5030042;28;20197;-52
2022/03/01 07:52:51;;;;;;;7.47;6.65;;;6.00;99.90;;;;;;5031460;28;20696;-54
2022/03/01 07:55:19;;;;;;;7.50;5.30;;;5.90;99.90;;;;;;5032216;28;20185;-53
2022/03/01 07:57:48;;;;;;;7.20;6.50;;;5.90;99.90;;;;;;5031201;28;20228;-52
2022/03/01 08:00:17;;;;;;;7.60;6.50;;;5.90;99.90;;;;;;5031268;28;20200;-53
2022/03/01 08:02:46;;;;;;;7.65;5.97;;;5.90;99.90;;;;;;5030445;28;20631;-54
2022/03/01 08:05:14;;;;;;;7.40;6.25;;;6.00;99.90;;;;;;5025419;28;20220;-51
2022/03/01 08:07:50;;;;;;;5.43;4.88;;;6.00;99.90;;;;;;5013654;28;20225;-53
2022/03/01 08:10:18;;;;;;;9.57;7.05;;;6.00;99.90;;;;;;5031981;28;20730;-53
2022/03/01 08:12:46;;;;;;;8.52;7.60;;;6.00;99.90;;;;;;5027712;28;20224;-52
2022/03/01 08:15:14;;;;;;;8.05;5.60;;;6.00;99.90;;;;;;5031697;28;20209;-51
2022/03/01 08:17:51;;;;;;;7.68;6.97;;;6.00;99.90;;;;;;5017628;28;20241;-53
2022/03/01 08:20:20;;;;;;;7.78;5.60;;;6.00;99.90;;;;;;5024670;28;20288;-53
2022/03/01 08:22:49;;;;;;;7.80;5.25;;;6.00;99.90;;;;;;5012008;28;20299;-53
2022/03/01 08:25:18;;;;;;;8.60;5.85;;;6.00;99.90;;;;;;5030676;28;20201;-52
2022/03/01 08:27:47;;;;;;;6.18;4.95;;;6.10;99.90;;;;;;5031513;28;20247;-52
2022/03/01 08:30:16;;;;;;;7.65;6.28;;;6.10;99.90;;;;;;5031300;28;20604;-52
2022/03/01 08:32:46;;;;;;;8.43;6.18;;;6.10;99.90;;;;;;5031529;28;20420;-52
2022/03/01 08:35:15;;;;;;;6.65;5.40;;;6.10;99.90;;;;;;5027093;28;20194;-53
2022/03/01 08:37:43;;;;;;;5.30;4.80;;;6.10;99.90;;;;;;5031410;28;20573;-52
2022/03/01 08:40:13;;;;;;;7.65;5.93;;;6.10;99.90;;;;;;5031686;28;20308;-53
2022/03/01 08:42:42;;;;;;;6.97;5.35;;;6.10;99.90;;;;;;5029507;28;20700;-52
2022/03/01 08:45:10;;;;;;;6.15;4.80;;;6.10;99.90;;;;;;5029732;28;20292;-51
2022/03/01 08:47:40;;;;;;;6.60;5.90;;;6.10;99.90;;;;;;5030265;28;20639;-52
2022/03/01 08:50:09;;;;;;;6.25;4.95;;;6.10;99.90;;;;;;5025728;28;20197;-52
2022/03/01 08:52:59;;;;;;;6.00;4.80;;;6.20;99.90;;;;;;5025020;28;20696;-53
2022/03/01 08:55:28;;;;;;;6.22;5.63;;;6.20;99.90;;;;;;5030695;28;20270;-53
2022/03/01 08:57:57;;;;;;;7.15;5.10;;;6.20;99.90;;;;;;5030833;28;20766;-52
2022/03/01 09:00:25;;;;;;;6.45;5.63;;;6.20;99.90;;;;;;5017657;28;20189;-53
2022/03/01 09:02:53;;;;;;;6.47;5.32;;;6.20;99.90;;;;;;5030446;28;20232;-52
2022/03/01 09:05:22;;;;;;;7.20;5.72;;;6.20;99.90;;;;;;5023527;28;20593;-52
2022/03/01 09:07:50;;;;;;;7.45;5.57;;;6.20;99.90;;;;;;5022474;28;20252;-52
2022/03/01 09:10:21;;;;;;;7.93;5.75;;;6.20;99.90;;;;;;5026322;28;20213;-53
2022/03/01 09:12:51;;;;;;;5.40;4.88;;;6.20;99.90;;;;;;5026266;28;20220;-53
2022/03/01 09:15:20;;;;;;;6.97;5.40;;;6.20;99.90;;;;;;5086794;22;20334;-49
2022/03/01 09:17:48;;;;;;;6.55;4.63;;;6.20;99.90;;;;;;5054681;28;20642;-49
2022/03/01 09:20:16;;;;;;;6.07;4.97;;;6.20;99.90;;;;;;5046724;28;20223;-48
2022/03/01 09:22:45;;;;;;;10.73;5.93;;;6.20;99.90;;;;;;5030112;28;20243;-48
2022/03/01 09:25:13;;;;;;;8.20;5.25;;;6.20;99.90;;;;;;5030451;28;20212;-48
2022/03/01 09:27:42;;;;;;;8.35;5.20;;;6.10;99.90;;;;;;5012502;28;20303;-48
2022/03/01 09:30:11;;;;;;;7.18;5.60;;;6.10;99.90;;;;;;5020200;28;20189;-49
2022/03/01 09:32:41;;;;;;;8.60;5.93;;;6.10;99.90;;;;;;5024864;28;20225;-49
2022/03/01 09:35:10;;;;;;;5.22;4.72;;;6.10;99.90;;;;;;5006942;28;20182;-48
2022/03/01 09:37:39;;;;;;;7.85;5.25;;;6.10;99.90;;;;;;5038052;28;20250;-48
2022/03/01 09:40:09;;;;;;;11.80;5.88;;;6.10;99.90;;;;;;5030633;28;20668;-48
2022/03/01 09:42:37;;;;;;;7.53;5.43;;;6.20;99.90;;;;;;5026835;28;20637;-48
2022/03/01 09:45:08;;;;;;;7.97;5.63;;;6.10;99.90;;;;;;5022741;28;20229;-48
2022/03/01 09:47:37;;;;;;;6.57;5.57;;;6.10;99.90;;;;;;5010535;28;20245;-48
2022/03/01 09:50:07;;;;;;;7.47;5.20;;;6.10;99.90;;;;;;5010443;28;20186;-48
2022/03/01 09:52:36;;;;;;;6.50;4.85;;;6.10;99.90;;;;;;5010369;28;20313;-48
2022/03/01 09:55:06;;;;;;;8.77;5.85;;;6.10;99.90;;;;;;4992903;28;20252;-48
2022/03/01 09:57:37;;;;;;;7.90;5.93;;;6.20;99.90;;;;;;5010398;28;20731;-49
2022/03/01 10:00:08;;;;;;;6.20;5.20;;;6.20;99.90;;;;;;5010575;28;20194;-48
2022/03/01 10:02:39;;;;;;;6.25;5.65;;;6.20;99.90;;;;;;5010414;28;20231;-48
2022/03/01 10:05:09;;;;;;;8.10;5.57;;;6.20;99.90;;;;;;5009152;28;20579;-49
2022/03/01 10:07:43;;;;;;;9.90;5.50;;;6.20;99.90;;;;;;5029645;28;20636;-49
2022/03/01 10:10:16;;;;;;;7.85;6.38;;;6.20;99.90;;;;;;5029846;28;20197;-49
2022/03/01 10:12:51;;;;;;;6.25;4.85;;;6.20;99.90;;;;;;5043003;28;20216;-48
2022/03/01 10:15:28;;;;;;;7.07;5.68;;;6.20;99.90;;;;;;5036169;28;20596;-48
2022/03/01 10:17:56;;;;;;;7.20;6.25;;;6.20;99.90;;;;;;5037592;28;20239;-49
2022/03/01 10:20:24;;;;;;;7.05;5.45;;;6.20;99.90;;;;;;5027084;28;20193;-49
2022/03/01 10:22:57;;;;;;;6.82;5.05;;;6.20;99.90;;;;;;5031813;28;20217;-49
2022/03/01 10:25:26;;;;;;;7.07;4.85;;;6.20;99.90;;;;;;5032987;28;20209;-48
2022/03/01 10:27:56;;;;;;;5.88;5.28;;;6.20;99.90;;;;;;5029797;28;20217;-49
2022/03/01 10:30:28;;;;;;;5.70;4.75;;;6.20;99.90;;;;;;5024042;28;20228;-49
2022/03/01 10:33:11;;;;;;;7.15;5.25;;;6.20;99.90;;;;;;5033839;28;20213;-49
2022/03/01 10:35:40;;;;;;;6.60;5.95;;;6.20;99.90;;;;;;5022916;28;20661;-48
2022/03/01 10:38:10;;;;;;;8.25;6.72;;;6.20;99.90;;;;;;5011848;28;20225;-49
2022/03/01 10:40:40;;;;;;;9.05;5.55;;;6.20;99.90;;;;;;5033477;28;20233;-48
2022/03/01 10:43:09;;;;;;;8.20;4.97;;;6.20;99.90;;;;;;5027881;28;20704;-48
2022/03/01 10:45:42;;;;;;;6.97;5.50;;;6.20;99.90;;;;;;5023911;28;20224;-48
2022/03/01 10:48:11;;;;;;;7.75;5.15;;;6.20;99.90;;;;;;5032339;28;20267;-48
2022/03/01 10:50:41;;;;;;;5.57;4.63;;;6.20;99.90;;;;;;5023513;28;20217;-48
2022/03/01 10:53:11;;;;;;;7.70;5.15;;;6.20;99.90;;;;;;5023127;28;20812;-48
2022/03/01 10:55:42;;;;;;;6.75;5.32;;;6.20;99.90;;;;;;5021778;28;20205;-48
2022/03/01 10:58:14;;;;;;;6.85;4.70;;;6.20;99.90;;;;;;5032870;28;20290;-48
2022/03/01 11:00:43;;;;;;;6.93;6.22;;;6.20;99.90;;;;;;5015543;28;20638;-49
2022/03/01 11:03:12;;;;;;;6.45;5.47;;;6.20;99.90;;;;;;5051095;28;20695;-48
2022/03/01 11:05:40;;;;;;;7.95;4.43;;;6.20;99.90;;;;;;5051043;28;20440;-48
2022/03/01 11:08:33;;;;;;;6.03;4.80;;;6.20;99.90;;;;;;5052510;28;20212;-48
2022/03/01 11:11:02;;;;;;;6.55;4.88;;;6.20;99.90;;;;;;5051704;28;20216;-48
2022/03/01 11:13:32;;;;;;;7.97;5.60;;;6.20;99.90;;;;;;5048712;28;20242;-48
2022/03/01 11:16:34;;;;;;;8.00;5.97;;;6.20;99.90;;;;;;5049704;28;20691;-48
2022/03/01 11:19:17;;;;;;;7.13;5.20;;;6.20;99.90;;;;;;5028292;28;20217;-48
2022/03/01 11:21:48;;;;;;;6.88;5.03;;;6.10;99.90;;;;;;5037406;28;20224;-48
2022/03/01 11:24:19;;;;;;;6.85;5.35;;;6.20;99.90;;;;;;5050538;28;20288;-48
2022/03/01 11:26:48;;;;;;;6.05;5.13;;;6.10;99.90;;;;;;5045212;28;20252;-48
2022/03/01 11:29:18;;;;;;;7.05;5.50;;;6.10;99.90;;;;;;5030869;28;20288;-48
2022/03/01 11:31:57;;;;;;;6.50;4.93;;;6.10;99.90;;;;;;5037406;28;20213;-49
2022/03/01 11:34:26;;;;;;;6.38;5.30;;;6.20;99.90;;;;;;5052113;28;20199;-48
2022/03/01 11:36:56;;;;;;;6.35;5.35;;;6.10;99.90;;;;;;5025506;28;20558;-49
2022/03/01 11:39:26;;;;;;;5.53;5.03;;;6.10;99.90;;;;;;5031816;28;20193;-49
2022/03/01 11:42:03;;;;;;;5.97;5.28;;;6.10;99.90;;;;;;5032251;28;20235;-48
2022/03/01 11:44:33;;;;;;;8.20;6.15;;;6.10;99.90;;;;;;5030187;28;20660;-48
2022/03/01 11:47:06;;;;;;;6.35;5.30;;;6.10;99.90;;;;;;5032295;28;20584;-49
2022/03/01 11:49:37;;;;;;;6.10;4.85;;;6.10;99.90;;;;;;5031387;28;20216;-49
2022/03/01 11:52:16;;;;;;;6.63;4.80;;;6.10;99.90;;;;;;4997121;28;20245;-48
2022/03/01 11:54:46;;;;;;;6.10;5.50;;;6.10;99.90;;;;;;5033117;28;20311;-49
2022/03/01 11:57:15;;;;;;;5.55;4.85;;;6.10;99.90;;;;;;5031852;28;20221;-48
2022/03/01 11:59:44;;;;;;;6.18;4.97;;;6.10;99.90;;;;;;5027596;28;20192;-48
2022/03/01 12:02:18;;;;;;;6.00;5.20;;;6.10;99.90;;;;;;5022977;28;20673;-49
2022/03/01 12:04:49;;;;;;;6.00;5.22;;;6.20;99.90;;;;;;5011993;28;20236;-49
2022/03/01 12:07:20;;;;;;;7.80;5.57;;;6.20;99.90;;;;;;5029441;28;20216;-48
2022/03/01 12:10:06;;;;;;;7.20;5.75;;;6.20;99.90;;;;;;5046906;28;20189;-48
2022/03/01 12:12:37;;;;;;;5.95;4.68;;;6.20;99.90;;;;;;5031827;28;20294;-49
2022/03/01 12:15:08;;;;;;;5.65;5.03;;;6.20;99.90;;;;;;5031347;28;20212;-48
2022/03/01 12:17:44;;;;;;;6.28;5.03;;;6.10;99.90;;;;;;5031889;28;20700;-49
2022/03/01 12:20:16;;;;;;;5.93;4.55;;;6.20;99.90;;;;;;5032013;28;20197;-48
2022/03/01 12:22:52;;;;;;;6.40;4.70;;;6.10;99.90;;;;;;5031902;28;20224;-48
2022/03/01 12:25:21;;;;;;;7.47;4.90;;;6.20;99.90;;;;;;5038949;28;20591;-48
2022/03/01 12:27:50;;;;;;;5.47;4.85;;;6.20;99.90;;;;;;5039110;28;20635;-49
2022/03/01 12:30:21;;;;;;;7.75;4.80;;;6.20;99.90;;;;;;5031694;28;20197;-49
2022/03/01 12:32:53;;;;;;;6.43;5.40;;;6.10;99.90;;;;;;5030434;28;20233;-48
2022/03/01 12:35:26;;;;;;;6.53;5.00;;;6.20;99.90;;;;;;5030922;28;20285;-48
2022/03/01 12:37:55;;;;;;;6.32;5.70;;;6.20;99.90;;;;;;5031436;28;20310;-48
2022/03/01 12:40:28;;;;;;;6.38;4.75;;;6.20;99.90;;;;;;5032359;28;20193;-48
2022/03/01 12:43:01;;;;;;;6.68;4.80;;;6.20;99.90;;;;;;5046833;28;20251;-48
2022/03/01 12:45:36;;;;;;;5.53;4.45;;;6.20;99.90;;;;;;5031506;28;20221;-48
2022/03/01 12:48:08;;;;;;;6.78;5.32;;;6.20;99.90;;;;;;5031252;28;20248;-48
2022/03/01 12:50:45;;;;;;;5.72;5.13;;;6.20;99.90;;;;;;5031841;28;20271;-48
2022/03/01 12:53:13;;;;;;;7.45;5.20;;;6.20;99.90;;;;;;5032273;28;20265;-49
2022/03/01 12:55:46;;;;;;;6.38;5.40;;;6.20;99.90;;;;;;5046927;28;20197;-48
2022/03/01 12:58:19;;;;;;;5.28;4.40;;;6.20;99.90;;;;;;5050246;28;20663;-48
2022/03/01 13:00:47;;;;;;;6.53;4.53;;;6.20;99.90;;;;;;5032758;28;20213;-48
2022/03/01 13:03:26;;;;;;;6.43;5.07;;;6.20;99.90;;;;;;5030913;28;20727;-48
2022/03/01 13:06:10;;;;;;;6.15;5.55;;;6.20;99.90;;;;;;5040239;28;20195;-49
2022/03/01 13:08:41;;;;;;;5.53;4.93;;;6.20;99.90;;;;;;5051375;28;20216;-48
2022/03/01 13:11:10;;;;;;;5.25;4.13;;;6.20;99.90;;;;;;5046451;28;20201;-48